Becker, MN (55308)

4:39 PM CDT on July 06, 2015 (GMT -0500)
Eagle Lake | | Change Station
CLOSE
Current Station
Personal Weather Station
Location: Big Lake, MN
Elevation: 961 ft
Nearby Weather Stations

Elev 961 ft 45.39 °N, 93.75 °W | Updated 5 minutes ago

Haze
Haze
73.9 °F
Feels Like 76 °F
N
4.2
Wind Variable Wind from South

Today
High -- | Low -- °F
--% Chance of Precip.
Yesterday
High -- | Low -- °F
Precip. -- in
5:33 AM 9:05 PM
Waning Gibbous, 72% visible
Pressure 29.97 in
Visibility 5.0 miles
Clouds Scattered Clouds 3500 ft
Scattered Clouds 4200 ft
Scattered Clouds 5000 ft
Heat Index 76 °F
Dew Point 63 °F
Humidity 69%
Rainfall 3.62 in
Snow Depth Not available.
UV 5 out of 12
Pollen .60 out of 12
Air Quality Not available.
Flu Activity Not available.
METAR KMGG 062136Z AUTO 34008KT 5SM HZ SCT035 SCT042 SCT050 22/15 A2997 RMK AO2 T02190154

More Conditions Fewer Conditions

Pressure 29.97 in
Visibility 5.0 miles
Clouds Scattered Clouds 3500 ft
Scattered Clouds 4200 ft
Scattered Clouds 5000 ft
Heat Index 76 °F
Dew Point 63 °F
Humidity 69%
Rainfall 3.62 in
Snow Depth Not available.
UV 5 out of 12
Pollen .60 out of 12
Air Quality Not available.
Flu Activity Not available.
METAR KMGG 062136Z AUTO 34008KT 5SM HZ SCT035 SCT042 SCT050 22/15 A2997 RMK AO2 T02190154

More Conditions Fewer Conditions

10-Day Weather Forecast

×

Almanac

Astronomy

Jul. 06, 2015 Rise Set
Actual Time
Civil Twilight
Nautical Twilight
Astronomical Twilight
Moon
Length of Visible Light
Length of Day
Tomorrow will be .
, % of the Moon is Illuminated

Today's Extremes

State Highs State Lows

Community

WunderPhotos

Upload Photos

1,835,659 photos uploaded!

WunderBlogs® & News

Nearby

Air Quality

  Air Quality AQ Index Pollutant
Not available.

Snow Depth

Station Depth Elevation

Earthquake Activity

City Distance Mag. Time & Date
Minimum magnitude displayed is 2.5.

Coastal Water Temperatures

Place Temperature

Stations

Nearby Weather Stations

Station Location Temp. Windchill Dew Point Humidity Wind Precip. Elev Updated Type